sensor_id;sensor_type;location;lat;lon;timestamp;P1;durP1;ratioP1;P2;durP2;ratioP2
78365;SDS011;67641;59.864;30.464;2023-04-24T00:01:12;6.25;;;1.40;;
78365;SDS011;67641;59.864;30.464;2023-04-24T00:03:41;8.15;;;1.00;;
78365;SDS011;67641;59.864;30.464;2023-04-24T00:06:07;9.25;;;2.00;;
78365;SDS011;67641;59.864;30.464;2023-04-24T00:08:34;6.63;;;1.17;;
78365;SDS011;67641;59.864;30.464;2023-04-24T00:11:02;3.55;;;1.42;;
78365;SDS011;67641;59.864;30.464;2023-04-24T00:13:29;5.53;;;1.20;;
78365;SDS011;67641;59.864;30.464;2023-04-24T00:15:56;7.03;;;1.20;;
78365;SDS011;67641;59.864;30.464;2023-04-24T00:18:22;5.22;;;1.13;;
78365;SDS011;67641;59.864;30.464;2023-04-24T00:20:49;6.90;;;1.00;;
78365;SDS011;67641;59.864;30.464;2023-04-24T00:23:16;7.03;;;1.10;;
78365;SDS011;67641;59.864;30.464;2023-04-24T00:25:42;7.75;;;1.45;;
78365;SDS011;67641;59.864;30.464;2023-04-24T00:28:09;7.00;;;1.10;;
78365;SDS011;67641;59.864;30.464;2023-04-24T00:30:36;8.65;;;1.23;;
78365;SDS011;67641;59.864;30.464;2023-04-24T00:33:02;8.13;;;1.10;;
78365;SDS011;67641;59.864;30.464;2023-04-24T00:35:29;6.38;;;1.50;;
78365;SDS011;67641;59.864;30.464;2023-04-24T00:37:55;7.20;;;1.00;;
78365;SDS011;67641;59.864;30.464;2023-04-24T00:40:22;5.15;;;0.80;;
78365;SDS011;67641;59.864;30.464;2023-04-24T00:42:49;5.88;;;0.93;;
78365;SDS011;67641;59.864;30.464;2023-04-24T00:45:16;6.60;;;1.00;;
78365;SDS011;67641;59.864;30.464;2023-04-24T00:47:42;4.70;;;1.48;;
78365;SDS011;67641;59.864;30.464;2023-04-24T00:50:09;4.70;;;1.10;;
78365;SDS011;67641;59.864;30.464;2023-04-24T00:52:37;5.93;;;1.30;;
78365;SDS011;67641;59.864;30.464;2023-04-24T00:55:06;4.85;;;1.27;;
78365;SDS011;67641;59.864;30.464;2023-04-24T00:57:33;4.68;;;0.98;;
78365;SDS011;67641;59.864;30.464;2023-04-24T01:00:00;3.95;;;1.65;;
78365;SDS011;67641;59.864;30.464;2023-04-24T01:02:27;5.57;;;1.40;;
78365;SDS011;67641;59.864;30.464;2023-04-24T01:04:53;10.50;;;1.50;;
78365;SDS011;67641;59.864;30.464;2023-04-24T01:07:20;6.10;;;1.50;;
78365;SDS011;67641;59.864;30.464;2023-04-24T01:09:47;3.28;;;1.05;;
78365;SDS011;67641;59.864;30.464;2023-04-24T01:14:43;7.70;;;1.48;;
78365;SDS011;67641;59.864;30.464;2023-04-24T01:17:10;5.72;;;1.10;;
78365;SDS011;67641;59.864;30.464;2023-04-24T01:19:36;3.20;;;1.08;;
78365;SDS011;67641;59.864;30.464;2023-04-24T01:22:08;3.63;;;1.08;;
78365;SDS011;67641;59.864;30.464;2023-04-24T01:24:37;4.93;;;0.90;;
78365;SDS011;67641;59.864;30.464;2023-04-24T01:27:04;4.25;;;1.38;;
78365;SDS011;67641;59.864;30.464;2023-04-24T01:29:30;6.50;;;1.35;;
78365;SDS011;67641;59.864;30.464;2023-04-24T01:31:57;3.95;;;1.70;;
78365;SDS011;67641;59.864;30.464;2023-04-24T01:34:24;9.45;;;1.20;;
78365;SDS011;67641;59.864;30.464;2023-04-24T01:36:51;3.92;;;1.20;;
78365;SDS011;67641;59.864;30.464;2023-04-24T01:39:18;4.32;;;1.10;;
78365;SDS011;67641;59.864;30.464;2023-04-24T01:41:46;8.10;;;1.20;;
78365;SDS011;67641;59.864;30.464;2023-04-24T01:44:12;6.50;;;1.50;;
78365;SDS011;67641;59.864;30.464;2023-04-24T01:46:39;5.70;;;1.08;;
78365;SDS011;67641;59.864;30.464;2023-04-24T01:49:06;3.80;;;1.60;;
78365;SDS011;67641;59.864;30.464;2023-04-24T01:51:33;5.90;;;1.40;;
78365;SDS011;67641;59.864;30.464;2023-04-24T01:53:59;7.20;;;1.23;;
78365;SDS011;67641;59.864;30.464;2023-04-24T01:56:26;5.20;;;1.02;;
78365;SDS011;67641;59.864;30.464;2023-04-24T01:58:55;7.95;;;1.60;;
78365;SDS011;67641;59.864;30.464;2023-04-24T02:01:23;7.32;;;1.38;;
78365;SDS011;67641;59.864;30.464;2023-04-24T02:03:50;5.55;;;1.20;;
78365;SDS011;67641;59.864;30.464;2023-04-24T02:06:16;3.97;;;1.10;;
78365;SDS011;67641;59.864;30.464;2023-04-24T02:08:43;6.82;;;1.80;;
78365;SDS011;67641;59.864;30.464;2023-04-24T02:11:09;7.38;;;1.40;;
78365;SDS011;67641;59.864;30.464;2023-04-24T02:13:36;4.03;;;1.67;;
78365;SDS011;67641;59.864;30.464;2023-04-24T02:16:02;8.00;;;1.85;;
78365;SDS011;67641;59.864;30.464;2023-04-24T02:18:28;4.00;;;1.50;;
78365;SDS011;67641;59.864;30.464;2023-04-24T02:20:55;3.42;;;1.13;;
78365;SDS011;67641;59.864;30.464;2023-04-24T02:23:21;7.72;;;2.05;;
78365;SDS011;67641;59.864;30.464;2023-04-24T02:25:48;6.50;;;2.30;;
78365;SDS011;67641;59.864;30.464;2023-04-24T02:28:14;9.15;;;1.88;;
78365;SDS011;67641;59.864;30.464;2023-04-24T02:30:41;5.78;;;1.50;;
78365;SDS011;67641;59.864;30.464;2023-04-24T02:33:07;4.25;;;1.70;;
78365;SDS011;67641;59.864;30.464;2023-04-24T02:35:33;5.47;;;1.77;;
78365;SDS011;67641;59.864;30.464;2023-04-24T02:38:00;5.10;;;1.40;;
78365;SDS011;67641;59.864;30.464;2023-04-24T02:40:26;3.92;;;1.70;;
78365;SDS011;67641;59.864;30.464;2023-04-24T02:42:53;5.40;;;1.40;;
78365;SDS011;67641;59.864;30.464;2023-04-24T02:45:20;6.78;;;1.70;;
78365;SDS011;67641;59.864;30.464;2023-04-24T02:47:46;5.47;;;1.30;;
78365;SDS011;67641;59.864;30.464;2023-04-24T02:50:12;8.38;;;2.00;;
78365;SDS011;67641;59.864;30.464;2023-04-24T02:52:39;7.05;;;1.48;;
78365;SDS011;67641;59.864;30.464;2023-04-24T02:55:06;6.82;;;1.67;;
78365;SDS011;67641;59.864;30.464;2023-04-24T02:57:33;4.45;;;1.50;;
78365;SDS011;67641;59.864;30.464;2023-04-24T03:00:00;5.80;;;1.80;;
78365;SDS011;67641;59.864;30.464;2023-04-24T03:02:26;5.68;;;1.73;;
78365;SDS011;67641;59.864;30.464;2023-04-24T03:04:53;4.65;;;1.67;;
78365;SDS011;67641;59.864;30.464;2023-04-24T03:07:19;7.22;;;1.48;;
78365;SDS011;67641;59.864;30.464;2023-04-24T03:09:46;4.55;;;1.42;;
78365;SDS011;67641;59.864;30.464;2023-04-24T03:12:13;5.63;;;1.52;;
78365;SDS011;67641;59.864;30.464;2023-04-24T03:14:40;5.60;;;1.38;;
78365;SDS011;67641;59.864;30.464;2023-04-24T03:17:06;6.07;;;1.60;;
78365;SDS011;67641;59.864;30.464;2023-04-24T03:19:33;5.10;;;1.10;;
78365;SDS011;67641;59.864;30.464;2023-04-24T03:22:01;7.50;;;1.42;;
78365;SDS011;67641;59.864;30.464;2023-04-24T03:24:28;5.15;;;1.17;;
78365;SDS011;67641;59.864;30.464;2023-04-24T03:26:54;6.40;;;1.38;;
78365;SDS011;67641;59.864;30.464;2023-04-24T03:29:22;3.13;;;1.20;;
78365;SDS011;67641;59.864;30.464;2023-04-24T03:31:49;3.17;;;1.00;;
78365;SDS011;67641;59.864;30.464;2023-04-24T03:34:15;4.68;;;1.35;;
78365;SDS011;67641;59.864;30.464;2023-04-24T03:36:41;4.97;;;1.50;;
78365;SDS011;67641;59.864;30.464;2023-04-24T03:39:08;4.72;;;1.25;;
78365;SDS011;67641;59.864;30.464;2023-04-24T03:41:34;4.85;;;1.40;;
78365;SDS011;67641;59.864;30.464;2023-04-24T03:44:01;4.65;;;1.23;;
78365;SDS011;67641;59.864;30.464;2023-04-24T03:46:28;4.32;;;1.67;;
78365;SDS011;67641;59.864;30.464;2023-04-24T03:48:54;6.90;;;1.48;;
78365;SDS011;67641;59.864;30.464;2023-04-24T03:51:21;5.05;;;1.73;;
78365;SDS011;67641;59.864;30.464;2023-04-24T03:53:48;6.72;;;1.05;;
78365;SDS011;67641;59.864;30.464;2023-04-24T03:56:15;3.65;;;1.20;;
78365;SDS011;67641;59.864;30.464;2023-04-24T03:58:41;6.45;;;1.48;;
78365;SDS011;67641;59.864;30.464;2023-04-24T04:01:11;5.50;;;1.40;;
78365;SDS011;67641;59.864;30.464;2023-04-24T04:03:38;4.22;;;1.17;;
78365;SDS011;67641;59.864;30.464;2023-04-24T04:06:05;3.95;;;1.27;;
78365;SDS011;67641;59.864;30.464;2023-04-24T04:08:32;4.32;;;1.27;;
78365;SDS011;67641;59.864;30.464;2023-04-24T04:10:58;5.50;;;1.92;;
78365;SDS011;67641;59.864;30.464;2023-04-24T04:13:25;11.23;;;1.75;;
78365;SDS011;67641;59.864;30.464;2023-04-24T04:15:51;7.13;;;1.00;;
78365;SDS011;67641;59.864;30.464;2023-04-24T04:18:17;7.18;;;1.27;;
78365;SDS011;67641;59.864;30.464;2023-04-24T04:20:44;3.22;;;1.27;;
78365;SDS011;67641;59.864;30.464;2023-04-24T04:23:10;3.90;;;1.02;;
78365;SDS011;67641;59.864;30.464;2023-04-24T04:25:37;4.88;;;1.80;;
78365;SDS011;67641;59.864;30.464;2023-04-24T04:28:03;5.78;;;1.45;;
78365;SDS011;67641;59.864;30.464;2023-04-24T04:30:30;4.40;;;1.33;;
78365;SDS011;67641;59.864;30.464;2023-04-24T04:32:58;6.53;;;1.63;;
78365;SDS011;67641;59.864;30.464;2023-04-24T04:35:25;5.32;;;1.10;;
78365;SDS011;67641;59.864;30.464;2023-04-24T04:37:51;7.15;;;0.90;;
78365;SDS011;67641;59.864;30.464;2023-04-24T04:40:18;5.72;;;1.45;;
78365;SDS011;67641;59.864;30.464;2023-04-24T04:42:44;3.15;;;1.00;;
78365;SDS011;67641;59.864;30.464;2023-04-24T04:45:11;3.53;;;1.13;;
78365;SDS011;67641;59.864;30.464;2023-04-24T04:47:38;3.35;;;0.90;;
78365;SDS011;67641;59.864;30.464;2023-04-24T04:50:05;3.10;;;0.85;;
78365;SDS011;67641;59.864;30.464;2023-04-24T04:52:32;2.90;;;0.88;;
78365;SDS011;67641;59.864;30.464;2023-04-24T04:54:59;4.50;;;0.90;;
78365;SDS011;67641;59.864;30.464;2023-04-24T04:57:26;3.58;;;0.90;;
78365;SDS011;67641;59.864;30.464;2023-04-24T04:59:52;4.55;;;1.30;;
78365;SDS011;67641;59.864;30.464;2023-04-24T05:02:18;3.30;;;1.10;;
78365;SDS011;67641;59.864;30.464;2023-04-24T05:04:45;6.35;;;1.40;;
78365;SDS011;67641;59.864;30.464;2023-04-24T05:07:11;4.13;;;1.00;;
78365;SDS011;67641;59.864;30.464;2023-04-24T05:09:38;4.05;;;1.02;;
78365;SDS011;67641;59.864;30.464;2023-04-24T05:12:04;4.03;;;1.00;;
78365;SDS011;67641;59.864;30.464;2023-04-24T05:14:31;4.03;;;1.25;;
78365;SDS011;67641;59.864;30.464;2023-04-24T05:16:57;4.65;;;1.10;;
78365;SDS011;67641;59.864;30.464;2023-04-24T05:19:24;2.42;;;0.80;;
78365;SDS011;67641;59.864;30.464;2023-04-24T05:21:50;4.13;;;1.00;;
78365;SDS011;67641;59.864;30.464;2023-04-24T05:24:17;4.00;;;1.30;;
78365;SDS011;67641;59.864;30.464;2023-04-24T05:26:43;2.78;;;1.25;;
78365;SDS011;67641;59.864;30.464;2023-04-24T05:29:10;3.95;;;1.08;;
78365;SDS011;67641;59.864;30.464;2023-04-24T05:31:37;3.45;;;1.48;;
78365;SDS011;67641;59.864;30.464;2023-04-24T05:34:03;4.57;;;1.23;;
78365;SDS011;67641;59.864;30.464;2023-04-24T05:36:31;3.55;;;1.30;;
78365;SDS011;67641;59.864;30.464;2023-04-24T05:38:57;2.60;;;1.05;;
78365;SDS011;67641;59.864;30.464;2023-04-24T05:41:24;3.55;;;1.25;;
78365;SDS011;67641;59.864;30.464;2023-04-24T05:43:50;3.08;;;1.17;;
78365;SDS011;67641;59.864;30.464;2023-04-24T05:46:17;5.70;;;1.10;;
78365;SDS011;67641;59.864;30.464;2023-04-24T05:48:44;5.35;;;1.25;;
78365;SDS011;67641;59.864;30.464;2023-04-24T05:51:11;4.10;;;1.52;;
78365;SDS011;67641;59.864;30.464;2023-04-24T05:53:37;5.20;;;1.35;;
78365;SDS011;67641;59.864;30.464;2023-04-24T05:56:04;3.03;;;1.40;;
78365;SDS011;67641;59.864;30.464;2023-04-24T05:58:30;3.55;;;1.15;;
78365;SDS011;67641;59.864;30.464;2023-04-24T06:00:57;4.03;;;1.15;;
78365;SDS011;67641;59.864;30.464;2023-04-24T06:03:24;2.58;;;1.13;;
78365;SDS011;67641;59.864;30.464;2023-04-24T06:05:50;4.40;;;1.23;;
78365;SDS011;67641;59.864;30.464;2023-04-24T06:08:17;4.45;;;1.30;;
78365;SDS011;67641;59.864;30.464;2023-04-24T06:10:43;2.70;;;1.20;;
78365;SDS011;67641;59.864;30.464;2023-04-24T06:13:10;3.65;;;1.50;;
78365;SDS011;67641;59.864;30.464;2023-04-24T06:15:37;4.28;;;1.38;;
78365;SDS011;67641;59.864;30.464;2023-04-24T06:18:04;4.07;;;1.23;;
78365;SDS011;67641;59.864;30.464;2023-04-24T06:20:30;4.10;;;1.20;;
78365;SDS011;67641;59.864;30.464;2023-04-24T06:22:56;4.95;;;1.20;;
78365;SDS011;67641;59.864;30.464;2023-04-24T06:25:26;4.15;;;1.40;;
78365;SDS011;67641;59.864;30.464;2023-04-24T06:30:19;3.55;;;1.13;;
78365;SDS011;67641;59.864;30.464;2023-04-24T06:32:46;2.65;;;1.30;;
78365;SDS011;67641;59.864;30.464;2023-04-24T06:35:12;3.22;;;1.45;;
78365;SDS011;67641;59.864;30.464;2023-04-24T06:37:39;3.78;;;1.50;;
78365;SDS011;67641;59.864;30.464;2023-04-24T06:40:07;3.45;;;1.40;;
78365;SDS011;67641;59.864;30.464;2023-04-24T06:42:34;4.55;;;1.33;;
78365;SDS011;67641;59.864;30.464;2023-04-24T06:45:01;3.13;;;1.30;;
78365;SDS011;67641;59.864;30.464;2023-04-24T06:47:29;4.05;;;1.80;;
78365;SDS011;67641;59.864;30.464;2023-04-24T06:49:55;4.50;;;1.40;;
78365;SDS011;67641;59.864;30.464;2023-04-24T06:52:23;3.70;;;1.50;;
78365;SDS011;67641;59.864;30.464;2023-04-24T06:54:49;3.47;;;1.38;;
78365;SDS011;67641;59.864;30.464;2023-04-24T06:57:16;3.80;;;1.80;;
78365;SDS011;67641;59.864;30.464;2023-04-24T06:59:43;3.53;;;1.45;;
78365;SDS011;67641;59.864;30.464;2023-04-24T07:02:09;4.28;;;1.48;;
78365;SDS011;67641;59.864;30.464;2023-04-24T07:04:36;4.10;;;1.38;;
78365;SDS011;67641;59.864;30.464;2023-04-24T07:07:02;2.80;;;1.67;;
78365;SDS011;67641;59.864;30.464;2023-04-24T07:09:28;6.93;;;1.60;;
78365;SDS011;67641;59.864;30.464;2023-04-24T07:11:55;3.20;;;1.75;;
78365;SDS011;67641;59.864;30.464;2023-04-24T07:14:22;4.65;;;1.70;;
78365;SDS011;67641;59.864;30.464;2023-04-24T07:16:48;5.18;;;1.85;;
78365;SDS011;67641;59.864;30.464;2023-04-24T07:19:15;4.32;;;1.73;;
78365;SDS011;67641;59.864;30.464;2023-04-24T07:21:41;3.58;;;2.00;;
78365;SDS011;67641;59.864;30.464;2023-04-24T07:24:08;6.97;;;1.90;;
78365;SDS011;67641;59.864;30.464;2023-04-24T07:26:36;5.63;;;1.70;;
78365;SDS011;67641;59.864;30.464;2023-04-24T07:29:04;5.45;;;2.15;;
78365;SDS011;67641;59.864;30.464;2023-04-24T07:31:30;4.22;;;2.25;;
78365;SDS011;67641;59.864;30.464;2023-04-24T07:33:57;6.55;;;2.35;;
78365;SDS011;67641;59.864;30.464;2023-04-24T07:36:24;5.13;;;2.25;;
78365;SDS011;67641;59.864;30.464;2023-04-24T07:38:51;3.65;;;2.00;;
78365;SDS011;67641;59.864;30.464;2023-04-24T07:41:18;4.47;;;2.08;;
78365;SDS011;67641;59.864;30.464;2023-04-24T07:43:46;6.53;;;1.90;;
78365;SDS011;67641;59.864;30.464;2023-04-24T07:46:13;3.80;;;2.10;;
78365;SDS011;67641;59.864;30.464;2023-04-24T07:48:40;5.47;;;2.33;;
78365;SDS011;67641;59.864;30.464;2023-04-24T07:51:07;5.57;;;2.45;;
78365;SDS011;67641;59.864;30.464;2023-04-24T07:53:35;4.35;;;2.03;;
78365;SDS011;67641;59.864;30.464;2023-04-24T07:56:02;3.80;;;2.20;;
78365;SDS011;67641;59.864;30.464;2023-04-24T07:58:28;6.60;;;2.50;;
78365;SDS011;67641;59.864;30.464;2023-04-24T08:00:55;3.42;;;1.98;;
78365;SDS011;67641;59.864;30.464;2023-04-24T08:03:21;5.03;;;2.38;;
78365;SDS011;67641;59.864;30.464;2023-04-24T08:05:48;5.35;;;1.83;;
78365;SDS011;67641;59.864;30.464;2023-04-24T08:08:16;4.47;;;1.90;;
78365;SDS011;67641;59.864;30.464;2023-04-24T08:10:43;7.60;;;2.22;;
78365;SDS011;67641;59.864;30.464;2023-04-24T08:13:09;3.58;;;1.63;;
78365;SDS011;67641;59.864;30.464;2023-04-24T08:15:37;3.92;;;1.90;;
78365;SDS011;67641;59.864;30.464;2023-04-24T08:18:03;4.50;;;1.80;;
78365;SDS011;67641;59.864;30.464;2023-04-24T08:20:30;5.95;;;1.80;;
78365;SDS011;67641;59.864;30.464;2023-04-24T08:22:56;3.22;;;2.03;;
78365;SDS011;67641;59.864;30.464;2023-04-24T08:25:23;5.28;;;1.92;;
78365;SDS011;67641;59.864;30.464;2023-04-24T08:27:50;6.40;;;2.00;;
78365;SDS011;67641;59.864;30.464;2023-04-24T08:30:17;4.55;;;1.90;;
78365;SDS011;67641;59.864;30.464;2023-04-24T08:32:44;4.00;;;1.67;;
78365;SDS011;67641;59.864;30.464;2023-04-24T08:35:10;4.70;;;2.00;;
78365;SDS011;67641;59.864;30.464;2023-04-24T08:37:37;4.35;;;1.95;;
78365;SDS011;67641;59.864;30.464;2023-04-24T08:40:06;3.50;;;1.80;;
78365;SDS011;67641;59.864;30.464;2023-04-24T08:42:39;2.08;;;1.33;;
78365;SDS011;67641;59.864;30.464;2023-04-24T08:45:07;6.03;;;1.70;;
78365;SDS011;67641;59.864;30.464;2023-04-24T08:47:34;4.18;;;1.63;;
78365;SDS011;67641;59.864;30.464;2023-04-24T08:50:02;3.70;;;1.73;;
78365;SDS011;67641;59.864;30.464;2023-04-24T08:52:35;3.28;;;1.55;;
78365;SDS011;67641;59.864;30.464;2023-04-24T08:55:01;6.43;;;2.03;;
78365;SDS011;67641;59.864;30.464;2023-04-24T08:57:28;5.15;;;2.17;;
78365;SDS011;67641;59.864;30.464;2023-04-24T08:59:56;4.28;;;1.92;;
78365;SDS011;67641;59.864;30.464;2023-04-24T09:02:24;3.78;;;1.80;;
78365;SDS011;67641;59.864;30.464;2023-04-24T09:04:52;4.20;;;1.83;;
78365;SDS011;67641;59.864;30.464;2023-04-24T09:07:19;7.13;;;2.05;;
78365;SDS011;67641;59.864;30.464;2023-04-24T09:09:48;3.97;;;1.70;;
78365;SDS011;67641;59.864;30.464;2023-04-24T09:12:16;2.78;;;1.45;;
78365;SDS011;67641;59.864;30.464;2023-04-24T09:14:44;4.57;;;1.90;;
78365;SDS011;67641;59.864;30.464;2023-04-24T09:17:11;3.15;;;1.67;;
78365;SDS011;67641;59.864;30.464;2023-04-24T09:19:38;3.97;;;1.73;;
78365;SDS011;67641;59.864;30.464;2023-04-24T09:22:05;4.25;;;1.55;;
78365;SDS011;67641;59.864;30.464;2023-04-24T09:24:33;5.13;;;1.80;;
78365;SDS011;67641;59.864;30.464;2023-04-24T09:27:01;4.18;;;1.40;;
78365;SDS011;67641;59.864;30.464;2023-04-24T09:29:27;7.85;;;2.40;;
78365;SDS011;67641;59.864;30.464;2023-04-24T09:31:54;5.47;;;1.75;;
78365;SDS011;67641;59.864;30.464;2023-04-24T09:34:21;3.05;;;1.27;;
78365;SDS011;67641;59.864;30.464;2023-04-24T09:36:49;3.20;;;1.80;;
78365;SDS011;67641;59.864;30.464;2023-04-24T09:39:16;4.07;;;1.70;;
78365;SDS011;67641;59.864;30.464;2023-04-24T09:41:49;4.15;;;1.60;;
78365;SDS011;67641;59.864;30.464;2023-04-24T09:44:18;3.53;;;1.60;;
78365;SDS011;67641;59.864;30.464;2023-04-24T09:46:49;4.10;;;1.60;;
78365;SDS011;67641;59.864;30.464;2023-04-24T09:49:24;3.22;;;1.65;;
78365;SDS011;67641;59.864;30.464;2023-04-24T09:51:52;6.72;;;1.73;;
78365;SDS011;67641;59.864;30.464;2023-04-24T09:54:36;4.50;;;1.80;;
78365;SDS011;67641;59.864;30.464;2023-04-24T09:57:04;3.20;;;1.65;;
78365;SDS011;67641;59.864;30.464;2023-04-24T09:59:31;4.75;;;1.58;;
78365;SDS011;67641;59.864;30.464;2023-04-24T10:01:57;2.30;;;1.20;;
78365;SDS011;67641;59.864;30.464;2023-04-24T10:04:26;5.38;;;1.73;;
78365;SDS011;67641;59.864;30.464;2023-04-24T10:06:54;4.15;;;1.45;;
78365;SDS011;67641;59.864;30.464;2023-04-24T10:09:23;2.88;;;1.30;;
78365;SDS011;67641;59.864;30.464;2023-04-24T10:11:54;3.40;;;1.33;;
78365;SDS011;67641;59.864;30.464;2023-04-24T10:14:24;3.80;;;1.27;;
78365;SDS011;67641;59.864;30.464;2023-04-24T10:16:53;2.75;;;1.10;;
78365;SDS011;67641;59.864;30.464;2023-04-24T10:19:22;3.00;;;1.20;;
78365;SDS011;67641;59.864;30.464;2023-04-24T10:21:51;2.35;;;1.33;;
78365;SDS011;67641;59.864;30.464;2023-04-24T10:24:20;3.85;;;1.23;;
78365;SDS011;67641;59.864;30.464;2023-04-24T10:26:46;3.92;;;1.23;;
78365;SDS011;67641;59.864;30.464;2023-04-24T10:29:17;4.18;;;1.23;;
78365;SDS011;67641;59.864;30.464;2023-04-24T10:31:44;3.78;;;1.27;;
78365;SDS011;67641;59.864;30.464;2023-04-24T10:34:12;2.50;;;1.30;;
78365;SDS011;67641;59.864;30.464;2023-04-24T10:36:41;3.45;;;1.55;;
78365;SDS011;67641;59.864;30.464;2023-04-24T10:39:11;2.47;;;1.30;;
78365;SDS011;67641;59.864;30.464;2023-04-24T10:41:40;5.45;;;1.50;;
78365;SDS011;67641;59.864;30.464;2023-04-24T10:44:07;2.30;;;1.27;;
78365;SDS011;67641;59.864;30.464;2023-04-24T10:46:36;2.83;;;1.50;;
78365;SDS011;67641;59.864;30.464;2023-04-24T10:49:04;4.03;;;1.52;;
78365;SDS011;67641;59.864;30.464;2023-04-24T10:54:25;2.63;;;1.42;;
78365;SDS011;67641;59.864;30.464;2023-04-24T10:59:45;4.38;;;1.67;;
78365;SDS011;67641;59.864;30.464;2023-04-24T11:02:16;3.58;;;1.45;;
78365;SDS011;67641;59.864;30.464;2023-04-24T11:04:44;3.67;;;1.52;;
78365;SDS011;67641;59.864;30.464;2023-04-24T11:07:11;2.22;;;1.40;;
78365;SDS011;67641;59.864;30.464;2023-04-24T11:09:38;2.92;;;1.58;;
78365;SDS011;67641;59.864;30.464;2023-04-24T11:12:09;3.22;;;1.77;;
78365;SDS011;67641;59.864;30.464;2023-04-24T11:20:00;3.70;;;1.60;;
78365;SDS011;67641;59.864;30.464;2023-04-24T11:22:27;4.35;;;1.45;;
78365;SDS011;67641;59.864;30.464;2023-04-24T11:24:59;3.83;;;1.77;;
78365;SDS011;67641;59.864;30.464;2023-04-24T11:27:30;4.85;;;1.80;;
78365;SDS011;67641;59.864;30.464;2023-04-24T11:30:01;3.95;;;2.00;;
78365;SDS011;67641;59.864;30.464;2023-04-24T11:35:00;3.03;;;1.70;;
78365;SDS011;67641;59.864;30.464;2023-04-24T11:37:28;3.60;;;1.83;;
78365;SDS011;67641;59.864;30.464;2023-04-24T11:40:01;3.65;;;1.90;;
78365;SDS011;67641;59.864;30.464;2023-04-24T11:42:28;4.10;;;2.08;;
78365;SDS011;67641;59.864;30.464;2023-04-24T11:44:59;5.15;;;2.50;;
78365;SDS011;67641;59.864;30.464;2023-04-24T11:47:28;4.30;;;1.92;;
78365;SDS011;67641;59.864;30.464;2023-04-24T11:49:56;2.85;;;1.75;;
78365;SDS011;67641;59.864;30.464;2023-04-24T11:52:23;5.00;;;2.13;;
78365;SDS011;67641;59.864;30.464;2023-04-24T11:54:50;3.90;;;1.70;;
78365;SDS011;67641;59.864;30.464;2023-04-24T11:57:20;3.17;;;1.70;;
78365;SDS011;67641;59.864;30.464;2023-04-24T11:59:48;3.42;;;1.63;;
78365;SDS011;67641;59.864;30.464;2023-04-24T12:02:21;4.05;;;2.10;;
78365;SDS011;67641;59.864;30.464;2023-04-24T12:04:49;3.58;;;1.60;;
78365;SDS011;67641;59.864;30.464;2023-04-24T12:07:16;4.30;;;1.80;;
78365;SDS011;67641;59.864;30.464;2023-04-24T12:12:09;4.68;;;1.88;;
78365;SDS011;67641;59.864;30.464;2023-04-24T12:14:47;3.13;;;2.00;;
78365;SDS011;67641;59.864;30.464;2023-04-24T12:17:16;3.97;;;1.70;;
78365;SDS011;67641;59.864;30.464;2023-04-24T12:19:47;3.55;;;1.98;;
78365;SDS011;67641;59.864;30.464;2023-04-24T12:22:13;5.50;;;1.70;;
78365;SDS011;67641;59.864;30.464;2023-04-24T12:24:56;7.03;;;2.00;;
78365;SDS011;67641;59.864;30.464;2023-04-24T12:27:33;3.40;;;1.63;;
78365;SDS011;67641;59.864;30.464;2023-04-24T12:30:02;3.75;;;1.90;;
78365;SDS011;67641;59.864;30.464;2023-04-24T12:32:30;3.22;;;2.05;;
78365;SDS011;67641;59.864;30.464;2023-04-24T12:34:56;3.25;;;1.90;;
78365;SDS011;67641;59.864;30.464;2023-04-24T12:37:25;3.70;;;1.77;;
78365;SDS011;67641;59.864;30.464;2023-04-24T12:40:01;3.38;;;1.80;;
78365;SDS011;67641;59.864;30.464;2023-04-24T12:42:36;3.28;;;1.92;;
78365;SDS011;67641;59.864;30.464;2023-04-24T12:45:11;4.40;;;2.42;;
78365;SDS011;67641;59.864;30.464;2023-04-24T12:47:39;2.63;;;1.52;;
78365;SDS011;67641;59.864;30.464;2023-04-24T12:50:10;4.22;;;2.00;;
78365;SDS011;67641;59.864;30.464;2023-04-24T12:52:38;3.83;;;2.00;;
78365;SDS011;67641;59.864;30.464;2023-04-24T12:55:06;4.53;;;2.15;;
78365;SDS011;67641;59.864;30.464;2023-04-24T12:57:36;3.03;;;1.90;;
78365;SDS011;67641;59.864;30.464;2023-04-24T13:00:05;3.53;;;1.90;;
78365;SDS011;67641;59.864;30.464;2023-04-24T13:02:33;6.65;;;1.83;;
78365;SDS011;67641;59.864;30.464;2023-04-24T13:05:00;4.00;;;1.85;;
78365;SDS011;67641;59.864;30.464;2023-04-24T13:07:28;4.57;;;2.10;;
78365;SDS011;67641;59.864;30.464;2023-04-24T13:09:55;5.30;;;1.67;;
78365;SDS011;67641;59.864;30.464;2023-04-24T13:12:23;4.32;;;2.00;;
78365;SDS011;67641;59.864;30.464;2023-04-24T13:14:51;4.88;;;2.08;;
78365;SDS011;67641;59.864;30.464;2023-04-24T13:17:18;3.83;;;2.47;;
78365;SDS011;67641;59.864;30.464;2023-04-24T13:19:44;3.30;;;1.90;;
78365;SDS011;67641;59.864;30.464;2023-04-24T13:22:11;5.85;;;1.80;;
78365;SDS011;67641;59.864;30.464;2023-04-24T13:24:39;3.75;;;1.95;;
78365;SDS011;67641;59.864;30.464;2023-04-24T13:27:08;3.10;;;2.20;;
78365;SDS011;67641;59.864;30.464;2023-04-24T13:29:36;3.20;;;1.83;;
78365;SDS011;67641;59.864;30.464;2023-04-24T13:32:03;5.88;;;1.95;;
78365;SDS011;67641;59.864;30.464;2023-04-24T13:34:29;4.45;;;2.13;;
78365;SDS011;67641;59.864;30.464;2023-04-24T13:36:57;4.32;;;1.90;;
78365;SDS011;67641;59.864;30.464;2023-04-24T13:39:24;3.60;;;2.13;;
78365;SDS011;67641;59.864;30.464;2023-04-24T13:41:52;4.18;;;1.92;;
78365;SDS011;67641;59.864;30.464;2023-04-24T13:47:37;3.90;;;2.08;;
78365;SDS011;67641;59.864;30.464;2023-04-24T13:50:07;4.22;;;2.20;;
78365;SDS011;67641;59.864;30.464;2023-04-24T13:52:35;4.25;;;1.90;;
78365;SDS011;67641;59.864;30.464;2023-04-24T13:55:01;3.75;;;2.20;;
78365;SDS011;67641;59.864;30.464;2023-04-24T13:57:28;4.80;;;2.83;;
78365;SDS011;67641;59.864;30.464;2023-04-24T13:59:54;5.10;;;2.30;;
78365;SDS011;67641;59.864;30.464;2023-04-24T14:02:24;6.18;;;2.55;;
78365;SDS011;67641;59.864;30.464;2023-04-24T14:04:51;5.22;;;2.30;;
78365;SDS011;67641;59.864;30.464;2023-04-24T14:07:17;3.85;;;2.58;;
78365;SDS011;67641;59.864;30.464;2023-04-24T14:09:43;4.95;;;2.05;;
78365;SDS011;67641;59.864;30.464;2023-04-24T14:12:10;3.53;;;2.20;;
78365;SDS011;67641;59.864;30.464;2023-04-24T14:14:36;4.18;;;2.33;;
78365;SDS011;67641;59.864;30.464;2023-04-24T14:17:03;4.45;;;2.40;;
78365;SDS011;67641;59.864;30.464;2023-04-24T14:19:29;4.32;;;2.33;;
78365;SDS011;67641;59.864;30.464;2023-04-24T14:21:56;3.58;;;2.05;;
78365;SDS011;67641;59.864;30.464;2023-04-24T14:24:24;4.28;;;2.05;;
78365;SDS011;67641;59.864;30.464;2023-04-24T14:26:50;4.55;;;2.00;;
78365;SDS011;67641;59.864;30.464;2023-04-24T14:29:17;4.05;;;2.00;;
78365;SDS011;67641;59.864;30.464;2023-04-24T14:31:43;2.80;;;2.03;;
78365;SDS011;67641;59.864;30.464;2023-04-24T14:34:10;4.82;;;2.30;;
78365;SDS011;67641;59.864;30.464;2023-04-24T14:36:37;3.33;;;2.20;;
78365;SDS011;67641;59.864;30.464;2023-04-24T14:39:03;3.47;;;2.42;;
78365;SDS011;67641;59.864;30.464;2023-04-24T14:41:32;4.45;;;2.08;;
78365;SDS011;67641;59.864;30.464;2023-04-24T14:44:01;3.25;;;2.08;;
78365;SDS011;67641;59.864;30.464;2023-04-24T14:46:29;4.13;;;2.17;;
78365;SDS011;67641;59.864;30.464;2023-04-24T14:48:56;4.28;;;2.72;;
78365;SDS011;67641;59.864;30.464;2023-04-24T14:51:23;5.72;;;2.50;;
78365;SDS011;67641;59.864;30.464;2023-04-24T14:53:51;4.43;;;2.58;;
78365;SDS011;67641;59.864;30.464;2023-04-24T14:56:17;3.50;;;2.25;;
78365;SDS011;67641;59.864;30.464;2023-04-24T14:58:43;4.78;;;2.38;;